createdAt,value
2022-07-25T00:00:34.369Z,1018.89
2022-07-25T00:01:34.529Z,1018.99
2022-07-25T00:02:34.360Z,1019.04
2022-07-25T00:03:34.403Z,1018.98
2022-07-25T00:04:34.454Z,1018.91
2022-07-25T00:05:37.844Z,1018.9
2022-07-25T00:06:34.429Z,1018.86
2022-07-25T00:07:34.359Z,1018.92
2022-07-25T00:08:34.359Z,1018.91
2022-07-25T00:09:34.376Z,1018.99
2022-07-25T00:10:34.603Z,1018.85
2022-07-25T00:11:34.580Z,1018.88
2022-07-25T00:12:34.360Z,1018.98
2022-07-25T00:13:34.358Z,1018.91
2022-07-25T00:14:34.357Z,1018.84
2022-07-25T00:15:34.430Z,1018.85
2022-07-25T00:16:34.433Z,1018.88
2022-07-25T00:17:34.463Z,1018.9
2022-07-25T00:18:34.391Z,1018.83
2022-07-25T00:19:34.378Z,1018.79
2022-07-25T00:20:34.419Z,1018.79
2022-07-25T00:21:34.386Z,1018.86
2022-07-25T00:22:34.387Z,1018.87
2022-07-25T00:23:34.480Z,1018.88
2022-07-25T00:24:34.413Z,1018.87
2022-07-25T00:25:34.405Z,1018.89
2022-07-25T00:26:39.492Z,1018.94
2022-07-25T00:27:34.425Z,1018.93
2022-07-25T00:28:34.494Z,1018.82
2022-07-25T00:29:34.432Z,1018.8
2022-07-25T00:30:34.362Z,1018.75
2022-07-25T00:31:34.566Z,1018.88
2022-07-25T00:32:34.379Z,1018.85
2022-07-25T00:33:34.366Z,1018.9
2022-07-25T00:34:34.406Z,1018.81
2022-07-25T00:35:34.405Z,1018.73
2022-07-25T00:36:34.522Z,1018.77
2022-07-25T00:37:34.406Z,1018.83
2022-07-25T00:38:34.356Z,1018.95
2022-07-25T00:39:35.742Z,1018.84
2022-07-25T00:40:34.361Z,1018.8
2022-07-25T00:41:34.375Z,1018.78
2022-07-25T00:42:34.358Z,1018.78
2022-07-25T00:43:34.367Z,1018.74
2022-07-25T00:44:34.369Z,1018.78
2022-07-25T00:45:34.362Z,1018.82
2022-07-25T00:46:34.441Z,1018.74
2022-07-25T00:47:34.398Z,1018.7
2022-07-25T00:48:34.428Z,1018.7
2022-07-25T00:49:34.378Z,1018.75
2022-07-25T00:50:34.391Z,1018.71
2022-07-25T00:51:34.381Z,1018.8
2022-07-25T00:52:34.369Z,1018.74
2022-07-25T00:53:34.408Z,1018.71
2022-07-25T00:54:34.363Z,1018.67
2022-07-25T00:55:34.377Z,1018.74
2022-07-25T00:56:34.408Z,1018.63
2022-07-25T00:57:34.405Z,1018.63
2022-07-25T00:58:34.393Z,1018.63
2022-07-25T00:59:34.365Z,1018.67
2022-07-25T01:00:34.397Z,1018.76
2022-07-25T01:01:34.481Z,1018.65
2022-07-25T01:02:34.450Z,1018.61
2022-07-25T01:03:34.370Z,1018.57
2022-07-25T01:04:34.375Z,1018.61
2022-07-25T01:05:34.375Z,1018.68
2022-07-25T01:06:34.422Z,1018.7
2022-07-25T01:07:34.365Z,1018.6
2022-07-25T01:08:34.358Z,1018.61
2022-07-25T01:09:34.360Z,1018.6
2022-07-25T01:10:34.397Z,1018.62
2022-07-25T01:11:34.566Z,1018.63
2022-07-25T01:12:34.487Z,1018.58
2022-07-25T01:13:34.362Z,1018.63
2022-07-25T01:14:34.368Z,1018.66
2022-07-25T01:15:34.445Z,1018.66
2022-07-25T01:16:34.379Z,1018.49
2022-07-25T01:17:34.442Z,1018.38
2022-07-25T01:18:34.422Z,1018.52
2022-07-25T01:19:34.373Z,1018.49
2022-07-25T01:20:34.369Z,1018.59
2022-07-25T01:21:34.388Z,1018.58
2022-07-25T01:22:34.387Z,1018.48
2022-07-25T01:23:34.368Z,1018.49
2022-07-25T01:24:34.383Z,1018.48
2022-07-25T01:25:34.365Z,1018.43
2022-07-25T01:26:34.409Z,1018.46
2022-07-25T01:27:34.381Z,1018.51
2022-07-25T01:28:34.507Z,1018.45
2022-07-25T01:29:34.425Z,1018.44
2022-07-25T01:30:34.381Z,1018.33
2022-07-25T01:31:34.470Z,1018.3
2022-07-25T01:32:34.405Z,1018.33
2022-07-25T01:33:34.400Z,1018.38
2022-07-25T01:34:34.424Z,1018.35
2022-07-25T01:35:34.415Z,1018.34
2022-07-25T01:36:34.493Z,1018.32
2022-07-25T01:37:34.361Z,1018.29
2022-07-25T01:38:34.403Z,1018.28
2022-07-25T01:39:34.394Z,1018.35
2022-07-25T01:40:34.384Z,1018.37
2022-07-25T01:41:34.376Z,1018.34
2022-07-25T01:42:34.365Z,1018.27
2022-07-25T01:43:34.379Z,1018.25
2022-07-25T01:44:34.365Z,1018.3
2022-07-25T01:45:34.369Z,1018.32
2022-07-25T01:46:34.494Z,1018.28
2022-07-25T01:47:34.396Z,1018.29
2022-07-25T01:48:34.397Z,1018.25
2022-07-25T01:49:34.381Z,1018.24
2022-07-25T01:50:34.368Z,1018.28
2022-07-25T01:51:34.412Z,1018.27
2022-07-25T01:52:34.374Z,1018.32
2022-07-25T01:53:34.366Z,1018.37
2022-07-25T01:54:34.371Z,1018.3
2022-07-25T01:55:34.362Z,1018.25
2022-07-25T01:56:34.385Z,1018.21
2022-07-25T01:57:34.366Z,1018.26
2022-07-25T01:58:34.363Z,1018.3
2022-07-25T01:59:34.368Z,1018.3
2022-07-25T02:00:34.376Z,1018.25
2022-07-25T02:01:34.558Z,1018.11
2022-07-25T02:02:34.381Z,1018.07
2022-07-25T02:03:34.370Z,1018.16
2022-07-25T02:04:34.505Z,1018.19
2022-07-25T02:05:34.362Z,1018.2
2022-07-25T02:06:34.380Z,1018.14
2022-07-25T02:07:34.399Z,1018.11
2022-07-25T02:08:34.359Z,1018.11
2022-07-25T02:09:34.433Z,1018.05
2022-07-25T02:10:34.442Z,1018.01
2022-07-25T02:11:34.380Z,1017.98
2022-07-25T02:12:34.363Z,1018.02
2022-07-25T02:13:34.360Z,1017.89
2022-07-25T02:14:34.385Z,1017.84
2022-07-25T02:15:34.404Z,1017.91
2022-07-25T02:16:34.436Z,1017.87
2022-07-25T02:17:34.385Z,1017.89
2022-07-25T02:18:34.516Z,1017.92
2022-07-25T02:19:34.442Z,1017.95
2022-07-25T02:20:34.387Z,1017.87
2022-07-25T02:21:34.388Z,1017.92
2022-07-25T02:22:34.391Z,1017.86
2022-07-25T02:23:34.358Z,1017.91
2022-07-25T02:24:34.363Z,1017.84
2022-07-25T02:25:34.436Z,1017.84
2022-07-25T02:26:34.380Z,1017.85
2022-07-25T02:27:34.407Z,1017.84
2022-07-25T02:28:34.364Z,1017.83
2022-07-25T02:29:34.392Z,1017.75
2022-07-25T02:30:34.538Z,1017.74
2022-07-25T02:31:34.443Z,1017.77
2022-07-25T02:32:34.363Z,1017.81
2022-07-25T02:33:34.385Z,1017.83
2022-07-25T02:34:34.411Z,1017.85
2022-07-25T02:35:34.370Z,1017.83
2022-07-25T02:36:34.382Z,1017.83
2022-07-25T02:37:34.440Z,1017.76
2022-07-25T02:38:34.471Z,1017.78
2022-07-25T02:39:34.447Z,1017.79
2022-07-25T02:40:34.394Z,1017.83
2022-07-25T02:41:34.377Z,1017.79
2022-07-25T02:42:34.363Z,1017.82
2022-07-25T02:43:34.362Z,1017.8
2022-07-25T02:44:34.364Z,1017.78
2022-07-25T02:45:34.515Z,1017.8
2022-07-25T02:46:34.507Z,1017.76
2022-07-25T02:47:34.366Z,1017.8
2022-07-25T02:48:34.445Z,1017.85
2022-07-25T02:49:34.413Z,1017.87
2022-07-25T02:50:34.419Z,1017.85
2022-07-25T02:51:34.378Z,1017.86
2022-07-25T02:52:34.396Z,1017.83
2022-07-25T02:53:56.126Z,1017.8
2022-07-25T02:54:34.403Z,1017.76
2022-07-25T02:55:34.399Z,1017.82
2022-07-25T02:56:34.415Z,1017.83
2022-07-25T02:57:34.373Z,1017.85
2022-07-25T02:58:34.377Z,1017.82
2022-07-25T02:59:34.377Z,1017.76
2022-07-25T03:00:34.369Z,1017.81
2022-07-25T03:01:34.453Z,1017.81
2022-07-25T03:02:34.389Z,1017.85
2022-07-25T03:03:34.409Z,1017.88
2022-07-25T03:04:34.474Z,1017.79
2022-07-25T03:05:34.363Z,1017.8
2022-07-25T03:06:34.371Z,1017.82
2022-07-25T03:07:34.385Z,1017.8
2022-07-25T03:08:34.368Z,1017.8
2022-07-25T03:09:34.399Z,1017.71
2022-07-25T03:10:34.382Z,1017.71
2022-07-25T03:11:34.436Z,1017.62
2022-07-25T03:12:34.382Z,1017.66
2022-07-25T03:13:34.382Z,1017.64
2022-07-25T03:14:34.384Z,1017.64
2022-07-25T03:15:34.416Z,1017.64
2022-07-25T03:16:34.499Z,1017.66
2022-07-25T03:17:34.382Z,1017.66
2022-07-25T03:18:34.381Z,1017.64
2022-07-25T03:19:34.403Z,1017.65
2022-07-25T03:20:34.408Z,1017.53
2022-07-25T03:21:34.404Z,1017.53
2022-07-25T03:22:34.382Z,1017.55
2022-07-25T03:23:34.434Z,1017.61
2022-07-25T03:24:34.391Z,1017.62
2022-07-25T03:25:34.382Z,1017.62
2022-07-25T03:26:34.424Z,1017.6
2022-07-25T03:27:34.396Z,1017.61
2022-07-25T03:28:34.398Z,1017.61
2022-07-25T03:29:34.380Z,1017.64
2022-07-25T03:30:34.382Z,1017.53
2022-07-25T03:31:34.563Z,1017.48
2022-07-25T03:32:34.382Z,1017.43
2022-07-25T03:33:34.408Z,1017.43
2022-07-25T03:34:34.396Z,1017.42
2022-07-25T03:35:35.300Z,1017.45
2022-07-25T03:36:34.397Z,1017.45
2022-07-25T03:37:34.381Z,1017.45
2022-07-25T03:38:34.452Z,1017.39
2022-07-25T03:39:34.386Z,1017.3
2022-07-25T03:40:34.438Z,1017.3
2022-07-25T03:41:34.593Z,1017.26
2022-07-25T03:42:35.574Z,1017.28
2022-07-25T03:43:34.367Z,1017.3
2022-07-25T03:44:34.438Z,1017.31
2022-07-25T03:45:34.434Z,1017.32
2022-07-25T03:46:34.421Z,1017.27
2022-07-25T03:47:34.368Z,1017.23
2022-07-25T03:48:34.568Z,1017.18
2022-07-25T03:49:34.510Z,1017.21
2022-07-25T03:50:34.371Z,1017.21
2022-07-25T03:51:34.387Z,1017.24
2022-07-25T03:52:34.404Z,1017.21
2022-07-25T03:53:34.357Z,1017.25
2022-07-25T03:54:34.391Z,1017.17
2022-07-25T03:55:34.391Z,1017.08
2022-07-25T03:56:34.423Z,1017.06
2022-07-25T03:57:34.362Z,1017.04
2022-07-25T03:58:34.362Z,1017.01
2022-07-25T03:59:34.363Z,1017.08
2022-07-25T04:00:34.406Z,1017.08
2022-07-25T04:01:34.532Z,1017.13
2022-07-25T04:02:34.514Z,1017
2022-07-25T04:03:34.387Z,1016.99
2022-07-25T04:04:34.411Z,1016.97
2022-07-25T04:05:34.413Z,1016.95
2022-07-25T04:06:34.425Z,1016.91
2022-07-25T04:07:34.426Z,1016.92
2022-07-25T04:08:34.386Z,1016.91
2022-07-25T04:09:34.384Z,1016.98
2022-07-25T04:10:34.395Z,1016.93
2022-07-25T04:11:34.406Z,1016.95
2022-07-25T04:12:34.380Z,1016.9
2022-07-25T04:13:34.388Z,1016.85
2022-07-25T04:14:34.419Z,1016.89
2022-07-25T04:15:34.383Z,1016.92
2022-07-25T04:16:34.487Z,1016.88
2022-07-25T04:17:34.412Z,1016.91
2022-07-25T04:18:34.408Z,1016.82
2022-07-25T04:19:34.455Z,1016.78
2022-07-25T04:20:34.400Z,1016.81
2022-07-25T04:21:34.401Z,1016.78
2022-07-25T04:22:34.384Z,1016.75
2022-07-25T04:23:34.366Z,1016.74
2022-07-25T04:24:34.369Z,1016.72
2022-07-25T04:25:34.380Z,1016.63
2022-07-25T04:26:34.376Z,1016.7
2022-07-25T04:27:34.372Z,1016.62
2022-07-25T04:28:34.395Z,1016.62
2022-07-25T04:29:34.388Z,1016.6
2022-07-25T04:30:34.363Z,1016.62
2022-07-25T04:31:34.441Z,1016.59
2022-07-25T04:32:34.367Z,1016.55
2022-07-25T04:33:34.409Z,1016.54
2022-07-25T04:34:34.428Z,1016.47
2022-07-25T04:35:34.483Z,1016.43
2022-07-25T04:36:34.371Z,1016.39
2022-07-25T04:37:34.509Z,1016.41
2022-07-25T04:38:34.371Z,1016.37
2022-07-25T04:39:34.376Z,1016.33
2022-07-25T04:40:34.447Z,1016.37
2022-07-25T04:41:34.434Z,1016.37
2022-07-25T04:42:34.392Z,1016.34
2022-07-25T04:43:34.396Z,1016.31
2022-07-25T04:44:34.404Z,1016.31
2022-07-25T04:45:34.646Z,1016.34
2022-07-25T04:46:34.367Z,1016.35
2022-07-25T04:47:34.366Z,1016.24
2022-07-25T04:48:34.440Z,1016.2
2022-07-25T04:49:34.402Z,1016.21
2022-07-25T04:50:34.365Z,1016.27
2022-07-25T04:51:34.431Z,1016.21
2022-07-25T04:52:34.401Z,1016.19
2022-07-25T04:53:34.389Z,1016.11
2022-07-25T04:54:34.360Z,1016.16
2022-07-25T04:55:34.360Z,1016.12
2022-07-25T04:56:34.374Z,1016.08
2022-07-25T04:57:34.358Z,1016.13
2022-07-25T04:58:34.364Z,1016.13
2022-07-25T04:59:34.360Z,1016.06
2022-07-25T05:00:34.412Z,1016.05
2022-07-25T05:01:34.548Z,1016.11
2022-07-25T05:02:34.442Z,1016.11
2022-07-25T05:03:34.396Z,1016
2022-07-25T05:04:35.025Z,1016.04
2022-07-25T05:05:34.364Z,1016.11
2022-07-25T05:06:34.390Z,1016.05
2022-07-25T05:07:34.423Z,1016.03
2022-07-25T05:08:34.414Z,1016.03
2022-07-25T05:09:34.372Z,1016.09
2022-07-25T05:10:34.400Z,1016.06
2022-07-25T05:11:34.428Z,1016.06
2022-07-25T05:12:34.380Z,1016.12
2022-07-25T05:13:34.386Z,1016.07
2022-07-25T05:14:34.378Z,1016.01
2022-07-25T05:15:34.363Z,1016.02
2022-07-25T05:16:34.458Z,1016.01
2022-07-25T05:17:34.409Z,1016
2022-07-25T05:18:34.402Z,1015.96
2022-07-25T05:19:34.410Z,1015.99
2022-07-25T05:20:34.380Z,1016
2022-07-25T05:21:34.377Z,1015.99
2022-07-25T05:22:34.364Z,1015.99
2022-07-25T05:23:34.388Z,1016.02
2022-07-25T05:24:34.404Z,1015.94
2022-07-25T05:25:34.373Z,1016.08
2022-07-25T05:26:34.397Z,1015.99
2022-07-25T05:27:34.422Z,1016.07
2022-07-25T05:28:34.378Z,1016.02
2022-07-25T05:29:34.483Z,1016
2022-07-25T05:30:39.444Z,1016.02
2022-07-25T05:31:34.509Z,1015.97
2022-07-25T05:32:34.406Z,1015.96
2022-07-25T05:33:34.425Z,1016.03
2022-07-25T05:34:34.381Z,1015.94
2022-07-25T05:35:34.418Z,1015.94
2022-07-25T05:36:34.456Z,1015.92
2022-07-25T05:37:34.530Z,1015.95
2022-07-25T05:38:34.423Z,1015.93
2022-07-25T05:39:34.369Z,1015.92
2022-07-25T05:40:34.366Z,1015.92
2022-07-25T05:41:34.374Z,1015.87
2022-07-25T05:42:34.405Z,1015.89
2022-07-25T05:43:34.365Z,1015.85
2022-07-25T05:44:34.361Z,1015.92
2022-07-25T05:45:34.364Z,1015.89
2022-07-25T05:46:34.513Z,1015.82
2022-07-25T05:47:34.389Z,1015.78
2022-07-25T05:48:34.448Z,1015.84
2022-07-25T05:49:34.416Z,1015.83
2022-07-25T05:50:34.359Z,1015.78
2022-07-25T05:51:34.388Z,1015.81
2022-07-25T05:52:34.419Z,1015.8
2022-07-25T05:53:34.365Z,1015.8
2022-07-25T05:54:34.369Z,1015.8
2022-07-25T05:55:34.377Z,1015.8
2022-07-25T05:56:34.399Z,1015.79
2022-07-25T05:57:34.381Z,1015.79
2022-07-25T05:58:34.380Z,1015.73
2022-07-25T05:59:34.374Z,1015.72
2022-07-25T06:00:34.415Z,1015.72
2022-07-25T06:01:34.460Z,1015.77
2022-07-25T06:02:34.508Z,1015.73
2022-07-25T06:03:34.430Z,1015.8
2022-07-25T06:04:34.437Z,1015.71
2022-07-25T06:05:34.378Z,1015.73
2022-07-25T06:06:34.388Z,1015.69
2022-07-25T06:07:34.446Z,1015.7
2022-07-25T06:08:34.388Z,1015.7
2022-07-25T06:09:34.394Z,1015.78
2022-07-25T06:10:34.420Z,1015.74
2022-07-25T06:11:34.438Z,1015.69
2022-07-25T06:12:34.461Z,1015.66
2022-07-25T06:13:34.647Z,1015.68
2022-07-25T06:14:34.372Z,1015.68
2022-07-25T06:15:34.400Z,1015.63
2022-07-25T06:16:34.474Z,1015.63
2022-07-25T06:17:34.424Z,1015.65
2022-07-25T06:18:34.438Z,1015.65
2022-07-25T06:19:34.405Z,1015.63
2022-07-25T06:20:34.405Z,1015.62
2022-07-25T06:21:34.446Z,1015.55
2022-07-25T06:22:34.412Z,1015.59
2022-07-25T06:23:34.379Z,1015.6
2022-07-25T06:24:34.404Z,1015.59
2022-07-25T06:25:34.384Z,1015.57
2022-07-25T06:26:34.412Z,1015.53
2022-07-25T06:27:34.380Z,1015.47
2022-07-25T06:28:34.376Z,1015.53
2022-07-25T06:29:34.382Z,1015.43
2022-07-25T06:30:34.416Z,1015.55
2022-07-25T06:31:34.474Z,1015.46
2022-07-25T06:32:34.379Z,1015.48
2022-07-25T06:33:34.420Z,1015.57
2022-07-25T06:34:34.377Z,1015.45
2022-07-25T06:35:34.374Z,1015.44
2022-07-25T06:36:34.389Z,1015.39
2022-07-25T06:37:34.383Z,1015.4
2022-07-25T06:38:34.441Z,1015.41
2022-07-25T06:39:34.376Z,1015.42
2022-07-25T06:40:34.416Z,1015.35
2022-07-25T06:41:34.409Z,1015.39
2022-07-25T06:42:34.382Z,1015.32
2022-07-25T06:43:34.410Z,1015.37
2022-07-25T06:44:34.380Z,1015.35
2022-07-25T06:45:34.387Z,1015.43
2022-07-25T06:46:34.535Z,1015.42
2022-07-25T06:47:36.188Z,1015.31
2022-07-25T06:48:34.481Z,1015.31
2022-07-25T06:49:34.385Z,1015.29
2022-07-25T06:50:34.504Z,1015.28
2022-07-25T06:51:34.506Z,1015.36
2022-07-25T06:52:34.377Z,1015.26
2022-07-25T06:53:34.388Z,1015.28
2022-07-25T06:54:34.379Z,1015.24
2022-07-25T06:55:34.392Z,1015.12
2022-07-25T06:56:34.452Z,1015.16
2022-07-25T06:57:34.376Z,1015.18
2022-07-25T06:58:34.463Z,1015.15
2022-07-25T06:59:34.574Z,1015.1
2022-07-25T07:00:34.485Z,1015.07
2022-07-25T07:01:34.502Z,1015.05
2022-07-25T07:02:34.401Z,1015.01
2022-07-25T07:03:34.438Z,1015
2022-07-25T07:04:34.541Z,1014.99
2022-07-25T07:05:34.464Z,1014.99
2022-07-25T07:06:34.440Z,1015.05
2022-07-25T07:07:34.423Z,1014.94
2022-07-25T07:08:34.376Z,1014.94
2022-07-25T07:09:34.460Z,1015.06
2022-07-25T07:10:34.440Z,1014.93
2022-07-25T07:11:34.402Z,1014.96
2022-07-25T07:12:34.379Z,1014.98
2022-07-25T07:13:34.378Z,1015.1
2022-07-25T07:14:34.372Z,1015.26
2022-07-25T07:15:34.399Z,1014.97
2022-07-25T07:16:34.535Z,1015.07
2022-07-25T07:17:34.456Z,1014.9
2022-07-25T07:18:34.377Z,1014.92
2022-07-25T07:19:34.411Z,1014.89
2022-07-25T07:20:40.932Z,1014.89
2022-07-25T07:21:39.402Z,1014.94
2022-07-25T07:22:39.337Z,1014.9
2022-07-25T07:23:39.368Z,1014.86
2022-07-25T07:24:44.087Z,1014.93
2022-07-25T07:25:39.366Z,1015.09
2022-07-25T07:26:39.340Z,1014.98
2022-07-25T07:27:39.317Z,1014.87
2022-07-25T07:28:39.285Z,1014.85
2022-07-25T07:29:39.339Z,1014.78
2022-07-25T07:31:13.293Z,1014.85
2022-07-25T07:31:39.350Z,1014.93
2022-07-25T07:32:39.299Z,1014.76
2022-07-25T07:33:39.312Z,1014.78
2022-07-25T07:34:39.336Z,1014.79
2022-07-25T07:35:39.307Z,1014.79
2022-07-25T07:36:39.354Z,1014.83
2022-07-25T07:37:43.478Z,1014.75
2022-07-25T07:38:39.290Z,1014.66
2022-07-25T07:39:39.347Z,1014.69
2022-07-25T07:40:39.292Z,1014.65
2022-07-25T07:41:39.304Z,1014.69
2022-07-25T07:42:39.329Z,1014.69
2022-07-25T07:43:39.291Z,1014.71
2022-07-25T07:44:39.286Z,1014.78
2022-07-25T07:45:39.343Z,1014.72
2022-07-25T07:46:39.415Z,1014.71
2022-07-25T07:47:39.341Z,1014.71
2022-07-25T07:48:39.323Z,1014.71
2022-07-25T07:49:39.283Z,1014.98
2022-07-25T07:50:39.317Z,1014.73
2022-07-25T07:51:39.312Z,1014.78
2022-07-25T07:52:39.367Z,1014.73
2022-07-25T07:53:39.295Z,1014.98
2022-07-25T07:54:39.291Z,1014.84
2022-07-25T07:55:39.295Z,1014.94
2022-07-25T07:56:39.312Z,1014.78
2022-07-25T07:57:39.312Z,1014.74
2022-07-25T07:58:39.331Z,1014.72
2022-07-25T07:59:39.302Z,1014.7
2022-07-25T08:00:39.303Z,1014.67
2022-07-25T08:01:39.451Z,1014.6
2022-07-25T08:02:39.336Z,1014.62
2022-07-25T08:03:39.285Z,1014.54
2022-07-25T08:04:39.290Z,1014.56
2022-07-25T09:16:32.106Z,1014.28
2022-07-25T09:16:45.314Z,1014.28
2022-07-25T09:17:45.073Z,1014.36
2022-07-25T09:18:45.033Z,1014.36
2022-07-25T09:19:45.012Z,1014.46
2022-07-25T09:20:45.059Z,1014.35
2022-07-25T09:21:45.579Z,1014.57
2022-07-25T09:22:44.970Z,1014.57
2022-07-25T09:23:44.918Z,1014.28
2022-07-25T09:24:44.945Z,1014.28
2022-07-25T09:25:44.933Z,1014.46
2022-07-25T09:26:44.958Z,1014.45
2022-07-25T09:27:44.937Z,1014.25
2022-07-25T09:28:44.977Z,1014.31
2022-07-25T09:29:44.952Z,1014.29
2022-07-25T09:30:45.004Z,1014.19
2022-07-25T09:31:44.995Z,1014.26
2022-07-25T09:32:52.783Z,1014.26
2022-07-25T09:33:44.927Z,1014.41
2022-07-25T09:34:44.971Z,1014.41
2022-07-25T09:35:44.924Z,1014.21
2022-07-25T09:57:51.331Z,1014.21
2022-07-25T09:57:51.413Z,1014.21
2022-07-25T09:58:22.240Z,1014.21
2022-07-25T09:59:22.169Z,1014.23
2022-07-25T10:00:42.726Z,1014.1
2022-07-25T10:01:34.270Z,1014.1
2022-07-25T10:02:22.148Z,1014.11
2022-07-25T10:03:22.105Z,1014.03
2022-07-25T10:04:22.113Z,1013.99
2022-07-25T10:05:22.110Z,1013.99
2022-07-25T10:06:22.094Z,1014.01
2022-07-25T10:07:22.083Z,1013.95
2022-07-25T10:08:22.081Z,1013.97
2022-07-25T10:09:22.095Z,1014.04
2022-07-25T10:10:22.106Z,1014.04
2022-07-25T10:11:22.088Z,1014.08
2022-07-25T10:12:38.275Z,1014.08
2022-07-25T10:13:57.695Z,1014.12
2022-07-25T10:14:22.079Z,1014.12
2022-07-25T10:15:22.107Z,1014.12
2022-07-25T10:16:22.175Z,1014.02
2022-07-25T10:17:32.288Z,1013.84
2022-07-25T10:18:22.170Z,1013.81
2022-07-25T10:19:22.085Z,1013.81
2022-07-25T10:20:22.106Z,1013.8
2022-07-25T10:21:26.283Z,1013.74
2022-07-25T10:22:39.682Z,1013.76
2022-07-25T10:23:22.112Z,1013.74
2022-07-25T10:24:22.118Z,1013.74
2022-07-25T10:25:22.103Z,1013.74
2022-07-25T10:26:22.078Z,1013.78
2022-07-25T10:27:22.084Z,1013.57
2022-07-25T10:29:35.688Z,1013.57
2022-07-25T10:29:35.732Z,1013.57
2022-07-25T10:30:22.094Z,1013.55
2022-07-25T10:31:22.260Z,1013.46
2022-07-25T10:32:22.106Z,1013.48
2022-07-25T10:33:22.080Z,1013.48
2022-07-25T10:34:22.084Z,1013.4
2022-07-25T10:35:22.097Z,1013.4
2022-07-25T10:36:22.090Z,1013.53
2022-07-25T10:37:22.124Z,1013.39
2022-07-25T10:38:29.722Z,1013.36
2022-07-25T10:39:22.103Z,1013.35
2022-07-25T10:40:22.123Z,1013.35
2022-07-25T10:41:22.082Z,1013.33
2022-07-25T10:42:22.086Z,1013.33
2022-07-25T10:43:22.072Z,1013.33
2022-07-25T10:44:22.088Z,1013.29
2022-07-25T10:45:22.092Z,1013.28
2022-07-25T10:46:22.197Z,1013.28
2022-07-25T10:47:22.067Z,1013.23
2022-07-25T10:48:22.075Z,1013.23
2022-07-25T10:49:29.109Z,1013.28
2022-07-25T10:50:46.183Z,1013.19
2022-07-25T10:51:22.081Z,1013.2
2022-07-25T10:52:22.085Z,1013.15
2022-07-25T10:53:22.085Z,1013.15
2022-07-25T10:54:22.085Z,1013.15
2022-07-25T10:55:22.103Z,1013.15
2022-07-25T10:56:22.099Z,1013.01
2022-07-25T10:57:22.089Z,1013
2022-07-25T10:58:42.400Z,1013.03
2022-07-25T10:59:30.466Z,1013.11
2022-07-25T11:00:22.104Z,1012.96
2022-07-25T11:01:22.167Z,1012.96
2022-07-25T11:02:42.388Z,1012.93
2022-07-25T11:03:22.086Z,1012.92
2022-07-25T11:04:32.305Z,1012.85
2022-07-25T11:05:22.086Z,1012.87
2022-07-25T11:06:22.083Z,1012.81
2022-07-25T11:07:22.082Z,1012.87
2022-07-25T11:08:22.787Z,1012.79
2022-07-25T11:09:26.851Z,1012.79
2022-07-25T11:10:22.087Z,1012.74
2022-07-25T11:11:22.097Z,1012.73
2022-07-25T11:12:22.075Z,1012.64
2022-07-25T11:13:22.090Z,1012.64
2022-07-25T11:14:23.809Z,1012.67
2022-07-25T11:15:57.769Z,1012.68
2022-07-25T11:16:43.107Z,1012.66
2022-07-25T11:17:44.776Z,1012.66
2022-07-25T11:18:22.102Z,1012.62
2022-07-25T11:19:22.081Z,1012.56
2022-07-25T11:20:28.025Z,1012.55
2022-07-25T11:21:22.087Z,1012.65
2022-07-25T11:22:22.093Z,1012.5
2022-07-25T11:23:22.102Z,1012.52
2022-07-25T11:24:22.088Z,1012.48
2022-07-25T11:25:22.100Z,1012.36
2022-07-25T11:26:22.068Z,1012.39
2022-07-25T11:27:22.069Z,1012.39
2022-07-25T11:28:22.074Z,1012.34
2022-07-25T11:29:22.087Z,1012.29
2022-07-25T11:30:22.072Z,1012.33
2022-07-25T11:31:22.107Z,1012.34
2022-07-25T11:32:22.061Z,1012.33
2022-07-25T11:33:52.415Z,1012.32
2022-07-25T11:34:42.410Z,1012.32
2022-07-25T11:35:22.103Z,1012.34
2022-07-25T11:36:30.159Z,1012.34
2022-07-25T11:37:27.589Z,1012.25
2022-07-25T11:38:22.134Z,1012.24
2022-07-25T11:39:22.077Z,1012.19
2022-07-25T11:40:22.089Z,1012.22
2022-07-25T11:41:35.127Z,1012.18
2022-07-25T11:42:22.073Z,1012.37
2022-07-25T11:43:43.670Z,1012.37
2022-07-25T11:44:22.075Z,1012.37
2022-07-25T11:45:22.081Z,1012.03
2022-07-25T11:46:22.146Z,1012.04
2022-07-25T11:47:22.068Z,1012
2022-07-25T11:48:22.073Z,1012.03
2022-07-25T11:49:22.142Z,1011.95
2022-07-25T11:50:23.789Z,1011.95
2022-07-25T11:51:22.076Z,1012.08
2022-07-25T11:52:22.082Z,1011.92
2022-07-25T11:53:22.087Z,1011.85
2022-07-25T11:54:40.474Z,1011.85
2022-07-25T11:55:22.109Z,1011.9
2022-07-25T11:56:40.881Z,1011.89
2022-07-25T11:57:22.086Z,1011.79
2022-07-25T11:58:22.071Z,1011.86
2022-07-25T11:59:22.072Z,1011.73
2022-07-25T12:00:22.081Z,1011.74
2022-07-25T12:01:22.265Z,1011.69
2022-07-25T12:02:22.190Z,1011.67
2022-07-25T12:03:22.279Z,1011.66
2022-07-25T12:04:22.073Z,1011.65
2022-07-25T12:05:22.080Z,1011.67
2022-07-25T12:06:22.098Z,1011.66
2022-07-25T12:07:22.080Z,1011.6
2022-07-25T12:08:22.091Z,1011.56
2022-07-25T12:09:50.364Z,1011.58
2022-07-25T12:10:22.093Z,1011.57
2022-07-25T12:11:22.073Z,1011.57
2022-07-25T12:12:22.071Z,1011.56
2022-07-25T12:13:22.080Z,1011.48
2022-07-25T12:14:22.100Z,1011.48
2022-07-25T12:15:22.083Z,1011.4
2022-07-25T12:16:22.147Z,1011.4
2022-07-25T12:17:22.097Z,1011.34
2022-07-25T12:18:22.073Z,1011.31
2022-07-25T12:19:22.096Z,1011.35
2022-07-25T12:20:22.090Z,1011.34
2022-07-25T12:21:22.077Z,1011.3
2022-07-25T12:22:22.072Z,1011.26
2022-07-25T12:23:22.165Z,1011.25
2022-07-25T12:24:50.888Z,1011.25
2022-07-25T12:25:22.095Z,1011.24
2022-07-25T12:26:44.712Z,1011.22
2022-07-25T12:27:22.074Z,1011.22
2022-07-25T12:28:22.075Z,1011.16
2022-07-25T12:29:22.075Z,1011.15
2022-07-25T12:31:04.336Z,1011.13
2022-07-25T12:31:32.071Z,1011.13
2022-07-25T12:32:22.087Z,1011.13
2022-07-25T12:33:22.083Z,1011.12
2022-07-25T12:34:22.078Z,1011.09
2022-07-25T12:35:22.074Z,1011.09
2022-07-25T12:36:23.753Z,1011.03
2022-07-25T12:37:22.085Z,1011.03
2022-07-25T12:38:22.083Z,1010.94
2022-07-25T12:39:22.077Z,1010.94
2022-07-25T12:40:22.354Z,1010.9
2022-07-25T12:41:22.082Z,1010.9
2022-07-25T12:42:22.071Z,1010.91
2022-07-25T12:43:46.598Z,1010.85
2022-07-25T12:44:22.086Z,1010.87
2022-07-25T12:45:22.071Z,1010.87
2022-07-25T12:46:22.117Z,1010.82
2022-07-25T12:47:22.114Z,1010.73
2022-07-25T12:48:22.122Z,1010.72
2022-07-25T12:49:31.171Z,1010.75
2022-07-25T12:50:22.076Z,1010.78
2022-07-25T12:51:22.089Z,1010.77
2022-07-25T12:52:22.079Z,1010.71
2022-07-25T12:53:22.079Z,1010.71
2022-07-25T12:54:22.656Z,1010.67
2022-07-25T12:55:22.091Z,1010.66
2022-07-25T12:56:22.082Z,1010.76
2022-07-25T12:57:33.387Z,1010.76
2022-07-25T12:58:27.331Z,1010.7
2022-07-25T12:59:22.084Z,1010.63
2022-07-25T13:00:22.101Z,1010.63
2022-07-25T13:01:22.124Z,1010.63
2022-07-25T13:02:22.181Z,1010.63
2022-07-25T13:03:22.075Z,1010.6
2022-07-25T13:04:22.078Z,1010.55
2022-07-25T13:05:22.075Z,1010.54
2022-07-25T13:06:22.087Z,1010.52
2022-07-25T13:07:22.084Z,1010.62
2022-07-25T13:08:22.108Z,1010.51
2022-07-25T13:09:22.086Z,1010.51
2022-07-25T13:10:22.086Z,1010.48
2022-07-25T13:11:26.666Z,1010.42
2022-07-25T13:12:22.077Z,1010.46
2022-07-25T13:13:22.105Z,1010.5
2022-07-25T13:14:22.080Z,1010.43
2022-07-25T13:15:22.077Z,1010.39
2022-07-25T13:16:22.173Z,1010.39
2022-07-25T13:17:26.687Z,1010.33
2022-07-25T13:18:33.514Z,1010.33
2022-07-25T13:19:22.083Z,1010.4
2022-07-25T13:20:22.084Z,1010.36
2022-07-25T13:21:22.118Z,1010.3
2022-07-25T13:22:22.093Z,1010.3
2022-07-25T13:23:22.084Z,1010.3
2022-07-25T13:24:22.836Z,1010.27
2022-07-25T13:25:22.082Z,1010.36
2022-07-25T13:26:22.101Z,1010.14
2022-07-25T13:27:22.079Z,1010.19
2022-07-25T13:28:22.077Z,1010.08
2022-07-25T13:29:22.081Z,1010.08
2022-07-25T13:30:22.093Z,1010.2
2022-07-25T13:31:52.982Z,1010.17
2022-07-25T13:32:22.093Z,1010.2
2022-07-25T13:33:41.150Z,1010.11
2022-07-25T13:34:22.077Z,1010.11
2022-07-25T13:35:24.703Z,1010.07
2022-07-25T13:36:22.078Z,1010.02
2022-07-25T13:37:33.939Z,1010.02
2022-07-25T13:38:22.078Z,1009.99